createdAt,value
2023-01-27T00:00:53.262Z,97.78
2023-01-27T00:01:54.885Z,96.90
2023-01-27T00:02:56.428Z,97.02
2023-01-27T00:03:58.033Z,96.96
2023-01-27T00:04:59.709Z,96.23
2023-01-27T00:06:01.433Z,96.13
2023-01-27T00:07:03.076Z,95.93
2023-01-27T00:08:04.738Z,96.12
2023-01-27T00:09:06.327Z,95.37
2023-01-27T00:10:09.577Z,96.15
2023-01-27T00:11:29.536Z,94.96
2023-01-27T00:12:49.845Z,95.21
2023-01-27T00:13:51.443Z,95.27
2023-01-27T00:14:53.019Z,94.56
2023-01-27T00:15:55.412Z,95.46
2023-01-27T00:16:57.119Z,95.44
2023-01-27T00:17:58.735Z,95.24
2023-01-27T00:19:00.257Z,96.24
2023-01-27T00:20:03.923Z,96.45
2023-01-27T00:21:24.178Z,96.31
2023-01-27T00:22:44.352Z,95.53
2023-01-27T00:24:04.364Z,94.85
2023-01-27T00:25:06.203Z,93.58
2023-01-27T00:26:11.959Z,94.12
2023-01-27T00:27:13.575Z,94.71
2023-01-27T00:28:23.000Z,93.55
2023-01-27T00:29:24.615Z,93.96
2023-01-27T00:30:26.097Z,94.33
2023-01-27T00:31:46.183Z,94.32
2023-01-27T00:33:06.414Z,94.18
2023-01-27T00:34:10.993Z,94.03
2023-01-27T00:35:12.775Z,94.99
2023-01-27T00:36:14.352Z,94.31
2023-01-27T00:37:16.535Z,93.86
2023-01-27T00:38:18.075Z,94.78
2023-01-27T00:39:19.607Z,93.52
2023-01-27T00:40:21.170Z,93.65
2023-01-27T00:41:23.498Z,94.12
2023-01-27T00:42:25.140Z,94.40
2023-01-27T00:43:26.665Z,93.98
2023-01-27T00:44:28.413Z,93.81
2023-01-27T00:45:48.670Z,94.50
2023-01-27T00:46:50.588Z,93.71
2023-01-27T00:47:52.967Z,94.24
2023-01-27T00:48:54.561Z,93.32
2023-01-27T00:49:56.133Z,93.96
2023-01-27T00:50:57.754Z,97.55
2023-01-27T00:51:59.271Z,97.94
2023-01-27T00:53:02.364Z,97.08
2023-01-27T00:54:05.117Z,96.81
2023-01-27T00:55:07.891Z,95.96
2023-01-27T00:56:09.866Z,95.85
2023-01-27T00:57:11.415Z,96.10
2023-01-27T00:58:13.408Z,96.16
2023-01-27T00:59:14.957Z,96.26
2023-01-27T01:00:17.335Z,95.85
2023-01-27T01:01:19.090Z,96.08
2023-01-27T01:02:20.634Z,96.09
2023-01-27T01:03:22.999Z,96.38
2023-01-27T01:04:24.566Z,96.37
2023-01-27T01:05:26.140Z,97.14
2023-01-27T01:06:28.094Z,97.88
2023-01-27T01:07:29.639Z,98.09
2023-01-27T01:08:33.189Z,98.29
2023-01-27T01:09:34.752Z,98.89
2023-01-27T01:10:38.961Z,98.76
2023-01-27T01:11:40.508Z,98.14
2023-01-27T01:12:42.042Z,98.31
2023-01-27T01:13:44.576Z,99.17
2023-01-27T01:14:46.201Z,98.75
2023-01-27T01:15:48.181Z,99.68
2023-01-27T01:16:49.741Z,99.11
2023-01-27T01:17:51.290Z,100.00
2023-01-27T01:18:53.401Z,99.99
2023-01-27T01:19:54.947Z,100.00
2023-01-27T01:20:56.484Z,100.00
2023-01-27T01:21:57.987Z,99.12
2023-01-27T01:22:59.539Z,98.69
2023-01-27T01:24:01.091Z,98.02
2023-01-27T01:25:02.673Z,97.67
2023-01-27T01:26:04.490Z,98.44
2023-01-27T01:27:06.041Z,97.35
2023-01-27T01:28:08.528Z,97.82
2023-01-27T01:29:10.052Z,98.05
2023-01-27T01:30:12.794Z,97.94
2023-01-27T01:31:18.079Z,97.87
2023-01-27T01:32:19.684Z,97.15
2023-01-27T01:33:21.463Z,97.14
2023-01-27T01:34:22.960Z,97.41
2023-01-27T01:35:25.280Z,97.17
2023-01-27T01:36:27.177Z,97.38
2023-01-27T01:37:28.798Z,96.50
2023-01-27T01:38:30.358Z,96.52
2023-01-27T01:39:32.319Z,96.14
2023-01-27T01:40:34.295Z,95.68
2023-01-27T01:41:35.882Z,96.10
2023-01-27T01:42:57.895Z,94.79
2023-01-27T01:43:59.564Z,95.75
2023-01-27T01:45:31.747Z,95.99
2023-01-27T01:46:33.326Z,95.41
2023-01-27T01:47:34.925Z,95.60
2023-01-27T01:49:02.654Z,97.91
2023-01-27T01:50:04.515Z,100.00
2023-01-27T01:51:18.273Z,100.00
2023-01-27T01:52:21.332Z,100.00
2023-01-27T01:53:29.458Z,100.00
2023-01-27T01:54:37.602Z,100.00
2023-01-27T01:55:40.804Z,100.00
2023-01-27T01:56:51.446Z,100.00
2023-01-27T01:57:53.348Z,98.51
2023-01-27T01:59:00.616Z,96.07
2023-01-27T02:00:07.106Z,95.31
2023-01-27T02:01:08.796Z,95.09
2023-01-27T02:02:18.192Z,95.36
2023-01-27T02:03:22.759Z,95.05
2023-01-27T02:04:31.965Z,95.35
2023-01-27T02:05:36.651Z,95.68
2023-01-27T02:06:45.716Z,95.33
2023-01-27T02:07:55.509Z,95.39
2023-01-27T02:08:57.236Z,95.21
2023-01-27T02:10:00.295Z,94.42
2023-01-27T02:11:01.899Z,95.01
2023-01-27T02:12:03.775Z,95.30
2023-01-27T02:13:05.334Z,96.27
2023-01-27T02:14:08.313Z,96.05
2023-01-27T02:15:11.305Z,95.12
2023-01-27T02:16:13.796Z,95.56
2023-01-27T02:17:15.782Z,95.71
2023-01-27T02:18:17.447Z,95.13
2023-01-27T02:19:42.473Z,96.10
2023-01-27T02:20:46.693Z,97.02
2023-01-27T02:21:51.133Z,95.84
2023-01-27T02:23:01.773Z,96.56
2023-01-27T02:24:12.297Z,95.32
2023-01-27T02:25:22.762Z,95.36
2023-01-27T02:26:34.568Z,95.14
2023-01-27T02:27:36.151Z,95.47
2023-01-27T02:28:37.707Z,95.14
2023-01-27T02:29:39.224Z,94.93
2023-01-27T02:30:40.811Z,95.21
2023-01-27T02:31:43.151Z,94.52
2023-01-27T02:32:44.790Z,94.80
2023-01-27T02:33:46.267Z,94.26
2023-01-27T02:34:48.028Z,94.63
2023-01-27T02:35:59.246Z,95.00
2023-01-27T02:37:06.135Z,95.34
2023-01-27T02:38:11.487Z,94.83
2023-01-27T02:39:15.455Z,95.01
2023-01-27T02:40:18.784Z,95.68
2023-01-27T02:41:20.236Z,96.73
2023-01-27T02:42:21.826Z,96.81
2023-01-27T02:43:23.474Z,97.43
2023-01-27T02:44:25.031Z,97.92
2023-01-27T02:45:26.866Z,98.34
2023-01-27T02:46:28.539Z,98.27
2023-01-27T02:47:30.175Z,98.56
2023-01-27T02:48:31.831Z,100.00
2023-01-27T02:49:33.393Z,100.00
2023-01-27T02:50:34.960Z,100.00
2023-01-27T02:51:36.565Z,100.00
2023-01-27T02:52:38.120Z,100.00
2023-01-27T02:53:40.404Z,100.00
2023-01-27T02:54:41.956Z,100.00
2023-01-27T02:55:43.514Z,99.83
2023-01-27T02:56:45.252Z,99.75
2023-01-27T02:57:46.851Z,100.00
2023-01-27T02:58:48.526Z,99.38
2023-01-27T02:59:50.258Z,99.54
2023-01-27T03:00:51.961Z,100.00
2023-01-27T03:01:53.607Z,99.90
2023-01-27T03:02:55.178Z,99.49
2023-01-27T03:03:56.703Z,99.82
2023-01-27T03:04:58.335Z,99.19
2023-01-27T03:06:00.003Z,98.38
2023-01-27T03:07:01.523Z,98.63
2023-01-27T03:08:03.145Z,98.83
2023-01-27T03:09:07.617Z,97.86
2023-01-27T03:10:10.201Z,98.04
2023-01-27T03:11:12.099Z,97.09
2023-01-27T03:12:22.828Z,96.18
2023-01-27T03:13:25.506Z,94.64
2023-01-27T03:14:45.468Z,94.31
2023-01-27T03:16:05.796Z,94.70
2023-01-27T03:17:25.975Z,95.19
2023-01-27T03:18:27.554Z,94.65
2023-01-27T03:19:29.152Z,95.67
2023-01-27T03:20:30.785Z,95.75
2023-01-27T03:21:32.339Z,95.72
2023-01-27T03:22:33.856Z,96.55
2023-01-27T03:23:35.528Z,97.49
2023-01-27T03:24:39.532Z,97.81
2023-01-27T03:25:45.951Z,98.32
2023-01-27T03:26:47.695Z,97.54
2023-01-27T03:27:50.029Z,97.01
2023-01-27T03:29:11.548Z,96.95
2023-01-27T03:30:13.210Z,97.05
2023-01-27T03:31:20.878Z,96.37
2023-01-27T03:32:28.039Z,96.33
2023-01-27T03:33:29.745Z,95.50
2023-01-27T03:34:31.382Z,95.75
2023-01-27T03:35:39.148Z,96.55
2023-01-27T03:36:59.737Z,95.78
2023-01-27T03:38:19.861Z,95.02
2023-01-27T03:39:39.747Z,94.78
2023-01-27T03:41:00.035Z,95.33
2023-01-27T03:42:20.161Z,94.13
2023-01-27T03:43:39.975Z,95.37
2023-01-27T03:45:00.136Z,94.72
2023-01-27T03:46:20.137Z,94.17
2023-01-27T03:47:21.740Z,95.32
2023-01-27T03:48:23.553Z,95.43
2023-01-27T03:49:25.216Z,96.75
2023-01-27T03:50:37.592Z,96.60
2023-01-27T03:51:39.515Z,96.62
2023-01-27T03:52:41.465Z,97.85
2023-01-27T03:53:43.062Z,97.70
2023-01-27T03:54:44.586Z,97.76
2023-01-27T03:55:47.032Z,97.92
2023-01-27T03:56:48.583Z,96.88
2023-01-27T03:57:50.118Z,96.41
2023-01-27T03:58:51.741Z,97.13
2023-01-27T03:59:53.298Z,96.44
2023-01-27T04:01:17.763Z,97.07
2023-01-27T04:02:37.853Z,95.89
2023-01-27T04:03:58.217Z,96.88
2023-01-27T04:05:18.179Z,97.03
2023-01-27T04:06:41.495Z,96.88
2023-01-27T04:07:43.060Z,96.69
2023-01-27T04:08:44.680Z,96.68
2023-01-27T04:09:46.235Z,96.82
2023-01-27T04:11:07.711Z,97.95
2023-01-27T04:12:10.163Z,100.00
2023-01-27T04:13:11.738Z,100.00
2023-01-27T04:14:13.538Z,100.00
2023-01-27T04:15:15.409Z,100.00
2023-01-27T04:16:19.927Z,100.00
2023-01-27T04:17:22.180Z,100.00
2023-01-27T04:18:23.713Z,100.00
2023-01-27T04:19:25.890Z,100.00
2023-01-27T04:20:27.677Z,100.00
2023-01-27T04:21:29.614Z,100.00
2023-01-27T04:22:31.582Z,100.00
2023-01-27T04:23:33.315Z,100.00
2023-01-27T04:24:34.978Z,100.00
2023-01-27T04:25:36.526Z,100.00
2023-01-27T04:26:38.548Z,100.00
2023-01-27T04:27:40.120Z,100.00
2023-01-27T04:28:44.678Z,100.00
2023-01-27T04:29:46.400Z,100.00
2023-01-27T04:30:48.029Z,100.00
2023-01-27T04:31:50.208Z,99.64
2023-01-27T04:32:51.839Z,98.76
2023-01-27T04:33:53.738Z,98.26
2023-01-27T04:34:55.365Z,97.24
2023-01-27T04:35:56.940Z,96.36
2023-01-27T04:36:58.804Z,96.38
2023-01-27T04:38:00.351Z,96.18
2023-01-27T04:39:01.988Z,98.23
2023-01-27T04:40:03.928Z,100.00
2023-01-27T04:41:05.640Z,100.00
2023-01-27T04:42:07.245Z,100.00
2023-01-27T04:43:11.556Z,100.00
2023-01-27T04:44:13.445Z,100.00
2023-01-27T04:45:16.267Z,100.00
2023-01-27T04:46:17.844Z,100.00
2023-01-27T04:47:19.351Z,100.00
2023-01-27T04:48:21.792Z,100.00
2023-01-27T04:49:23.486Z,100.00
2023-01-27T04:50:25.005Z,100.00
2023-01-27T04:51:27.267Z,100.00
2023-01-27T04:52:28.837Z,100.00
2023-01-27T04:53:30.415Z,100.00
2023-01-27T04:54:31.973Z,100.00
2023-01-27T04:55:33.579Z,100.00
2023-01-27T04:56:41.129Z,100.00
2023-01-27T04:57:42.649Z,100.00
2023-01-27T04:58:44.177Z,100.00
2023-01-27T04:59:45.695Z,100.00
2023-01-27T05:00:47.235Z,100.00
2023-01-27T05:01:48.845Z,100.00
2023-01-27T05:02:50.411Z,100.00
2023-01-27T05:03:51.988Z,100.00
2023-01-27T05:04:53.621Z,100.00
2023-01-27T05:05:55.170Z,99.57
2023-01-27T05:06:56.729Z,100.00
2023-01-27T05:08:05.963Z,100.00
2023-01-27T05:09:07.490Z,99.47
2023-01-27T05:10:09.809Z,100.00
2023-01-27T05:11:12.036Z,99.18
2023-01-27T05:12:13.565Z,99.82
2023-01-27T05:13:15.118Z,99.10
2023-01-27T05:14:16.763Z,100.00
2023-01-27T05:15:18.277Z,100.00
2023-01-27T05:16:23.725Z,100.00
2023-01-27T05:17:27.802Z,100.00
2023-01-27T05:18:29.354Z,100.00
2023-01-27T05:19:32.266Z,100.00
2023-01-27T05:20:34.142Z,98.71
2023-01-27T05:21:35.704Z,97.96
2023-01-27T05:22:37.211Z,97.29
2023-01-27T05:23:39.115Z,97.56
2023-01-27T05:24:41.043Z,97.59
2023-01-27T05:25:46.009Z,96.67
2023-01-27T05:26:47.616Z,96.01
2023-01-27T05:27:49.138Z,94.74
2023-01-27T05:28:52.246Z,94.84
2023-01-27T05:29:53.852Z,93.84
2023-01-27T05:31:08.788Z,94.69
2023-01-27T05:32:10.388Z,94.60
2023-01-27T05:33:11.994Z,95.06
2023-01-27T05:34:13.559Z,94.89
2023-01-27T05:35:15.433Z,94.66
2023-01-27T05:36:18.884Z,94.76
2023-01-27T05:37:20.546Z,94.56
2023-01-27T05:38:22.128Z,95.89
2023-01-27T05:39:23.681Z,95.24
2023-01-27T05:40:25.304Z,95.93
2023-01-27T05:41:31.024Z,96.32
2023-01-27T05:42:32.560Z,97.43
2023-01-27T05:43:36.493Z,97.26
2023-01-27T05:44:37.993Z,98.49
2023-01-27T05:45:39.553Z,97.52
2023-01-27T05:46:42.214Z,100.00
2023-01-27T05:47:43.763Z,100.00
2023-01-27T05:48:48.516Z,100.00
2023-01-27T05:49:50.052Z,100.00
2023-01-27T05:50:56.797Z,100.00
2023-01-27T05:51:58.353Z,99.32
2023-01-27T05:52:59.882Z,99.89
2023-01-27T05:54:02.013Z,97.51
2023-01-27T05:55:04.163Z,97.45
2023-01-27T05:56:06.563Z,98.03
2023-01-27T05:57:08.138Z,98.83
2023-01-27T05:58:09.714Z,99.44
2023-01-27T05:59:11.471Z,99.67
2023-01-27T06:00:13.566Z,98.61
2023-01-27T06:01:19.639Z,99.94
2023-01-27T06:02:22.774Z,100.00
2023-01-27T06:03:25.202Z,100.00
2023-01-27T06:04:26.903Z,100.00
2023-01-27T06:05:28.504Z,100.00
2023-01-27T06:06:32.006Z,100.00
2023-01-27T06:07:33.539Z,100.00
2023-01-27T06:08:36.131Z,100.00
2023-01-27T06:09:38.850Z,100.00
2023-01-27T06:10:40.455Z,100.00
2023-01-27T06:11:42.004Z,100.00
2023-01-27T06:12:43.530Z,100.00
2023-01-27T06:13:45.221Z,100.00
2023-01-27T06:14:46.810Z,100.00
2023-01-27T06:15:48.699Z,100.00
2023-01-27T06:16:50.370Z,100.00
2023-01-27T06:17:52.870Z,100.00
2023-01-27T06:18:54.527Z,99.74
2023-01-27T06:19:56.087Z,99.65
2023-01-27T06:21:02.241Z,99.50
2023-01-27T06:22:03.774Z,98.70
2023-01-27T06:23:06.685Z,99.50
2023-01-27T06:24:08.362Z,98.60
2023-01-27T06:25:10.048Z,98.55
2023-01-27T06:26:16.343Z,98.21
2023-01-27T06:27:17.907Z,97.30
2023-01-27T06:28:28.912Z,96.87
2023-01-27T06:29:30.952Z,96.75
2023-01-27T06:30:34.516Z,97.97
2023-01-27T06:31:36.172Z,98.16
2023-01-27T06:32:37.733Z,97.88
2023-01-27T06:33:39.618Z,98.62
2023-01-27T06:34:41.113Z,99.09
2023-01-27T06:35:42.793Z,99.12
2023-01-27T06:36:44.284Z,98.29
2023-01-27T06:37:45.889Z,97.42
2023-01-27T06:38:48.615Z,96.88
2023-01-27T06:39:50.159Z,96.63
2023-01-27T06:40:51.698Z,96.43
2023-01-27T06:41:53.201Z,95.58
2023-01-27T06:42:55.353Z,96.37
2023-01-27T06:43:56.964Z,95.97
2023-01-27T06:44:58.539Z,95.46
2023-01-27T06:46:00.372Z,96.22
2023-01-27T06:47:02.406Z,96.12
2023-01-27T06:48:04.245Z,95.76
2023-01-27T06:49:05.858Z,95.48
2023-01-27T06:50:09.318Z,95.94
2023-01-27T06:51:10.863Z,96.81
2023-01-27T06:52:12.472Z,97.43
2023-01-27T06:53:14.109Z,97.21
2023-01-27T06:54:16.236Z,96.69
2023-01-27T06:55:19.174Z,97.89
2023-01-27T06:56:20.699Z,98.68
2023-01-27T06:57:22.301Z,98.67
2023-01-27T06:58:24.644Z,98.18
2023-01-27T06:59:26.254Z,97.68
2023-01-27T07:00:27.889Z,97.21
2023-01-27T07:01:29.490Z,96.79
2023-01-27T07:02:31.157Z,96.41
2023-01-27T07:04:34.424Z,95.68
2023-01-27T07:05:36.091Z,96.14
2023-01-27T07:06:38.174Z,96.02
2023-01-27T07:07:40.085Z,96.08
2023-01-27T07:08:42.507Z,95.02
2023-01-27T07:09:52.318Z,94.09
2023-01-27T07:10:54.348Z,93.98
2023-01-27T07:11:56.141Z,94.12
2023-01-27T07:13:08.820Z,92.97
2023-01-27T07:14:10.735Z,93.58
2023-01-27T07:15:12.729Z,93.03
2023-01-27T07:16:14.351Z,93.54
2023-01-27T07:17:15.937Z,93.60
2023-01-27T07:18:17.542Z,92.59
2023-01-27T07:19:19.064Z,91.68
2023-01-27T07:20:20.787Z,92.00
2023-01-27T07:21:22.317Z,91.65
2023-01-27T07:22:23.891Z,99.67
2023-01-27T07:23:25.552Z,100.00
2023-01-27T07:24:27.137Z,100.00
2023-01-27T07:25:30.683Z,98.69
2023-01-27T07:26:32.255Z,97.60
2023-01-27T07:27:34.446Z,96.91
2023-01-27T07:28:35.975Z,95.38
2023-01-27T07:29:37.472Z,94.25
2023-01-27T07:30:39.393Z,93.02
2023-01-27T07:31:41.131Z,92.68
2023-01-27T07:32:42.748Z,93.19
2023-01-27T07:33:44.258Z,93.85
2023-01-27T07:34:45.880Z,93.25
2023-01-27T07:35:49.826Z,93.42
2023-01-27T07:36:51.973Z,94.43
2023-01-27T07:37:53.452Z,96.14
2023-01-27T07:38:55.031Z,96.55
2023-01-27T07:39:56.604Z,96.60
2023-01-27T07:40:58.631Z,96.60
2023-01-27T07:42:03.771Z,95.84
2023-01-27T07:43:05.323Z,95.23
2023-01-27T07:44:06.951Z,94.04
2023-01-27T07:45:09.588Z,92.40
2023-01-27T07:46:11.196Z,91.34
2023-01-27T07:47:12.845Z,91.91
2023-01-27T07:48:14.873Z,92.27
2023-01-27T07:49:16.448Z,92.19
2023-01-27T07:50:18.138Z,92.95
2023-01-27T07:51:19.754Z,93.29
2023-01-27T07:52:21.359Z,93.69
2023-01-27T07:53:22.981Z,94.79
2023-01-27T07:54:25.303Z,95.16
2023-01-27T07:55:27.083Z,95.34
2023-01-27T07:56:28.661Z,95.44
2023-01-27T07:57:30.237Z,96.06
2023-01-27T07:58:31.763Z,95.90
2023-01-27T07:59:33.455Z,95.83
2023-01-27T08:00:35.392Z,96.08
2023-01-27T08:01:37.591Z,95.28
2023-01-27T08:02:39.195Z,95.29
2023-01-27T08:03:40.768Z,95.26
2023-01-27T08:04:52.482Z,95.94
2023-01-27T08:05:54.973Z,95.78
2023-01-27T08:06:56.509Z,95.54
2023-01-27T08:07:59.080Z,95.48
2023-01-27T08:09:00.736Z,95.09
2023-01-27T08:10:02.298Z,95.03
2023-01-27T08:11:08.111Z,93.91
2023-01-27T08:12:09.713Z,93.46
2023-01-27T08:13:11.266Z,94.14
2023-01-27T08:14:12.812Z,93.05
2023-01-27T08:15:15.515Z,92.13
2023-01-27T08:16:18.731Z,93.03
2023-01-27T08:17:20.278Z,92.74
2023-01-27T08:18:21.813Z,93.36
2023-01-27T08:19:23.328Z,93.24
2023-01-27T08:20:27.203Z,93.65
2023-01-27T08:21:32.871Z,92.99
2023-01-27T08:22:34.423Z,93.61
2023-01-27T08:23:36.165Z,92.93
2023-01-27T08:24:37.729Z,92.62
2023-01-27T08:25:39.377Z,92.92
2023-01-27T08:26:41.014Z,92.17
2023-01-27T08:27:42.663Z,91.94
2023-01-27T08:28:44.440Z,91.67
2023-01-27T08:29:46.362Z,91.73
2023-01-27T08:30:48.398Z,92.09
2023-01-27T08:31:49.999Z,92.23
2023-01-27T08:32:51.591Z,91.90
2023-01-27T08:33:54.444Z,92.73
2023-01-27T08:34:56.079Z,91.76
2023-01-27T08:36:03.185Z,92.18
2023-01-27T08:37:05.908Z,91.68
2023-01-27T08:38:07.540Z,91.44
2023-01-27T08:39:10.417Z,91.83
2023-01-27T08:40:12.683Z,92.44
2023-01-27T08:41:17.048Z,91.64
2023-01-27T08:42:18.651Z,91.76
2023-01-27T08:43:20.899Z,91.62
2023-01-27T08:44:22.768Z,91.65
2023-01-27T08:45:24.383Z,91.19
2023-01-27T08:46:26.068Z,91.51
2023-01-27T08:47:27.653Z,92.20
2023-01-27T08:48:31.095Z,91.77
2023-01-27T08:49:32.699Z,91.81
2023-01-27T08:50:34.390Z,91.93
2023-01-27T08:51:35.931Z,92.33
2023-01-27T08:52:37.827Z,91.88
2023-01-27T08:53:39.628Z,92.06
2023-01-27T08:54:41.202Z,91.19
2023-01-27T08:55:42.989Z,91.59
2023-01-27T08:56:44.635Z,92.00
2023-01-27T08:57:46.203Z,91.00
2023-01-27T08:58:48.605Z,92.01
2023-01-27T08:59:50.156Z,91.68
2023-01-27T09:00:51.735Z,91.50
2023-01-27T09:01:53.248Z,90.67
2023-01-27T09:02:54.886Z,91.80
2023-01-27T09:03:56.493Z,90.59
2023-01-27T09:04:58.000Z,90.91
2023-01-27T09:05:59.949Z,90.78
2023-01-27T09:07:01.527Z,89.83
2023-01-27T09:08:04.032Z,91.01
2023-01-27T09:09:12.307Z,89.91
2023-01-27T09:10:15.678Z,90.24
2023-01-27T09:11:18.088Z,90.54
2023-01-27T09:12:19.814Z,89.74
2023-01-27T09:13:22.488Z,89.90
2023-01-27T09:14:24.075Z,88.74
2023-01-27T09:15:25.596Z,90.45
2023-01-27T09:16:27.188Z,91.34
2023-01-27T09:17:28.808Z,92.21
2023-01-27T09:18:30.416Z,91.38
2023-01-27T09:19:32.284Z,91.05
2023-01-27T09:20:37.061Z,91.94
2023-01-27T09:21:38.631Z,91.95
2023-01-27T09:22:41.228Z,92.05
2023-01-27T09:23:42.786Z,91.36
2023-01-27T09:24:44.664Z,90.55
2023-01-27T09:25:46.200Z,89.76
2023-01-27T09:26:47.801Z,91.43
2023-01-27T09:27:49.610Z,92.24
2023-01-27T09:28:51.123Z,92.49
2023-01-27T09:29:52.719Z,92.87
2023-01-27T09:30:57.945Z,92.89
2023-01-27T09:31:59.569Z,91.81
2023-01-27T09:33:01.644Z,92.40
2023-01-27T09:34:04.576Z,92.06
2023-01-27T09:35:06.536Z,92.80
2023-01-27T09:36:19.001Z,91.78
2023-01-27T09:37:20.634Z,91.16
2023-01-27T09:38:23.945Z,91.36
2023-01-27T09:39:26.638Z,91.17
2023-01-27T09:40:32.452Z,91.68
2023-01-27T09:41:36.790Z,91.82
2023-01-27T09:43:09.328Z,91.76
2023-01-27T09:44:13.827Z,90.23
2023-01-27T09:45:27.471Z,91.56
2023-01-27T09:46:38.070Z,91.88
2023-01-27T09:47:51.810Z,93.47
2023-01-27T09:49:20.226Z,92.78
2023-01-27T09:50:47.146Z,93.50
2023-01-27T09:52:11.628Z,93.22
2023-01-27T09:53:22.440Z,92.21
2023-01-27T09:54:33.083Z,93.24
2023-01-27T09:55:44.770Z,92.57
2023-01-27T09:57:16.729Z,92.63
2023-01-27T09:58:46.442Z,92.50
2023-01-27T09:59:50.923Z,92.00
2023-01-27T10:01:17.265Z,91.13
2023-01-27T10:02:30.972Z,90.48
2023-01-27T10:03:53.144Z,90.17
2023-01-27T10:05:36.667Z,91.48
2023-01-27T10:07:00.309Z,92.23
2023-01-27T10:08:40.814Z,93.69
2023-01-27T10:10:20.468Z,94.52
2023-01-27T10:11:33.059Z,95.99
2023-01-27T10:12:41.135Z,96.86
2023-01-27T10:14:05.894Z,96.19
2023-01-27T10:15:32.708Z,95.95
2023-01-27T10:16:37.176Z,95.37
2023-01-27T10:18:08.475Z,95.20
2023-01-27T10:19:15.690Z,97.47
2023-01-27T10:20:35.706Z,96.40
2023-01-27T10:21:43.817Z,95.11
2023-01-27T10:23:00.172Z,93.46
2023-01-27T10:24:18.370Z,92.57
2023-01-27T10:25:38.241Z,92.15
2023-01-27T10:26:45.949Z,91.58
2023-01-27T10:27:51.341Z,92.69
2023-01-27T10:29:03.192Z,92.62
2023-01-27T10:30:15.945Z,91.68
2023-01-27T10:31:17.789Z,91.95
2023-01-27T10:32:27.204Z,90.90
2023-01-27T10:33:54.423Z,90.49
2023-01-27T10:35:09.377Z,89.87
2023-01-27T10:36:21.860Z,89.43
2023-01-27T10:37:47.631Z,88.66
2023-01-27T10:39:21.103Z,88.54
2023-01-27T10:40:29.563Z,89.73
2023-01-27T10:41:31.108Z,89.29
2023-01-27T10:43:16.652Z,89.07
2023-01-27T10:44:22.086Z,90.21
2023-01-27T10:45:30.031Z,89.82
2023-01-27T10:46:41.531Z,90.53
2023-01-27T10:47:51.215Z,90.30
2023-01-27T10:49:23.995Z,88.98
2023-01-27T10:50:30.931Z,88.86
2023-01-27T10:51:37.779Z,88.06
2023-01-27T10:52:46.617Z,87.68
2023-01-27T10:53:51.031Z,87.57
2023-01-27T10:55:17.715Z,87.48
2023-01-27T10:56:35.903Z,86.92
2023-01-27T10:57:41.813Z,87.00
2023-01-27T10:58:46.252Z,86.77
2023-01-27T11:00:05.307Z,86.33
2023-01-27T11:01:20.760Z,86.07
2023-01-27T11:02:37.824Z,86.54
2023-01-27T11:03:48.713Z,86.93
2023-01-27T11:04:56.696Z,87.09
2023-01-27T11:06:03.151Z,87.46
2023-01-27T11:07:06.685Z,87.19
2023-01-27T11:08:21.030Z,87.02
2023-01-27T11:09:29.270Z,86.88
2023-01-27T11:10:39.098Z,86.85
2023-01-27T11:11:46.165Z,86.36
2023-01-27T11:12:54.606Z,86.04
2023-01-27T11:14:07.124Z,85.33
2023-01-27T11:15:30.321Z,84.73
2023-01-27T11:16:40.153Z,85.04
2023-01-27T11:18:07.414Z,84.78
2023-01-27T11:19:30.889Z,85.32
2023-01-27T11:21:01.521Z,85.18
2023-01-27T11:22:10.304Z,84.72
2023-01-27T11:23:21.159Z,85.09
2023-01-27T11:24:39.442Z,84.21
2023-01-27T11:26:11.715Z,84.84
2023-01-27T11:27:25.481Z,85.28
2023-01-27T11:28:52.100Z,85.90
2023-01-27T11:30:08.533Z,86.09
2023-01-27T11:31:38.214Z,86.51
2023-01-27T11:33:15.215Z,88.40
2023-01-27T11:34:24.849Z,90.99
2023-01-27T11:35:26.731Z,90.49
2023-01-27T11:36:28.339Z,90.60
2023-01-27T11:37:37.313Z,90.22
2023-01-27T11:38:38.905Z,89.81
2023-01-27T11:39:40.525Z,89.68
2023-01-27T11:40:42.711Z,89.71
2023-01-27T11:41:52.168Z,89.43
2023-01-27T11:42:59.806Z,88.61
2023-01-27T11:44:06.390Z,87.79
2023-01-27T11:45:14.783Z,86.68
2023-01-27T11:46:24.364Z,85.67
2023-01-27T11:47:38.747Z,86.50
2023-01-27T11:48:47.426Z,87.24
2023-01-27T11:49:52.314Z,86.54
2023-01-27T11:50:53.908Z,86.02
2023-01-27T11:52:15.649Z,86.86
2023-01-27T11:53:17.398Z,87.32
2023-01-27T11:54:23.583Z,87.35
2023-01-27T11:55:32.095Z,87.30
2023-01-27T11:56:36.461Z,88.00
2023-01-27T11:57:42.793Z,87.88
2023-01-27T11:59:00.191Z,87.71
2023-01-27T12:00:08.102Z,86.77
2023-01-27T12:01:22.504Z,86.94
2023-01-27T12:02:44.414Z,88.03
2023-01-27T12:04:22.005Z,88.12
2023-01-27T12:05:48.810Z,88.86
2023-01-27T12:06:59.532Z,88.76
2023-01-27T12:08:03.802Z,88.53
2023-01-27T12:09:05.387Z,88.68
2023-01-27T12:10:38.809Z,89.05
2023-01-27T12:11:40.399Z,87.92
2023-01-27T12:12:44.492Z,87.83
2023-01-27T12:13:56.092Z,88.12
2023-01-27T12:15:03.061Z,87.48
2023-01-27T12:16:05.569Z,87.55
2023-01-27T12:17:08.623Z,87.01
2023-01-27T12:18:14.981Z,87.18
2023-01-27T12:19:28.641Z,88.10
2023-01-27T12:20:32.965Z,89.44
2023-01-27T12:21:48.178Z,89.65
2023-01-27T12:23:01.073Z,90.24
2023-01-27T12:24:03.345Z,90.55
2023-01-27T12:25:14.038Z,90.33
2023-01-27T12:26:16.124Z,89.63
2023-01-27T12:27:24.454Z,88.54
2023-01-27T12:28:33.786Z,89.05
2023-01-27T12:29:47.891Z,88.74
2023-01-27T12:30:51.411Z,89.34
2023-01-27T12:31:55.864Z,89.11
2023-01-27T12:32:58.956Z,88.99
2023-01-27T12:34:08.181Z,89.45
2023-01-27T12:35:20.692Z,90.76
2023-01-27T12:36:23.539Z,90.29
2023-01-27T12:37:33.234Z,89.96
2023-01-27T12:38:36.524Z,90.40
2023-01-27T12:39:57.374Z,89.68
2023-01-27T12:41:10.377Z,89.95
2023-01-27T12:42:35.932Z,89.55
2023-01-27T12:44:07.633Z,89.68
2023-01-27T12:45:35.026Z,89.37
2023-01-27T12:46:40.498Z,89.18
2023-01-27T12:47:58.707Z,89.45
2023-01-27T12:49:20.711Z,89.19
2023-01-27T12:50:31.829Z,88.77
2023-01-27T12:51:41.034Z,88.42
2023-01-27T12:52:42.707Z,88.53
2023-01-27T12:53:44.336Z,88.67
2023-01-27T12:54:46.296Z,88.33
2023-01-27T12:56:10.067Z,89.42
2023-01-27T12:57:19.684Z,88.65
2023-01-27T12:58:47.052Z,89.05
2023-01-27T12:59:55.179Z,89.28
2023-01-27T13:00:58.231Z,89.45
2023-01-27T13:02:19.140Z,89.53
2023-01-27T13:03:22.386Z,90.04
2023-01-27T13:04:28.905Z,91.11
2023-01-27T13:05:39.623Z,91.37
2023-01-27T13:06:44.205Z,90.94
2023-01-27T13:07:49.438Z,90.56
2023-01-27T13:08:52.578Z,89.96
2023-01-27T13:10:06.750Z,89.32
2023-01-27T13:11:08.698Z,88.94
2023-01-27T13:12:20.496Z,88.77
2023-01-27T13:13:28.327Z,88.69
2023-01-27T13:14:34.278Z,88.05
2023-01-27T13:15:35.925Z,88.03
2023-01-27T13:16:38.230Z,88.16
2023-01-27T13:17:48.144Z,87.86
2023-01-27T13:18:58.200Z,87.50
2023-01-27T13:20:05.250Z,88.40
2023-01-27T13:21:18.221Z,89.09
2023-01-27T13:22:22.163Z,89.86
2023-01-27T13:23:29.294Z,90.04
2023-01-27T13:24:41.293Z,89.19
2023-01-27T13:26:04.916Z,89.65
2023-01-27T13:27:15.773Z,88.83
2023-01-27T13:28:51.273Z,88.07
2023-01-27T13:30:10.204Z,88.83
2023-01-27T13:31:27.373Z,88.98
2023-01-27T13:32:33.274Z,89.21
2023-01-27T13:33:49.684Z,90.71
2023-01-27T13:35:19.238Z,90.43
2023-01-27T13:36:35.424Z,89.92
2023-01-27T13:37:55.650Z,89.68
2023-01-27T13:39:06.887Z,91.21
2023-01-27T13:40:21.048Z,91.69
2023-01-27T13:41:32.519Z,92.21
2023-01-27T13:42:41.273Z,93.45
2023-01-27T13:43:56.059Z,93.15
2023-01-27T13:45:05.595Z,93.38
2023-01-27T13:46:21.493Z,93.60
2023-01-27T13:47:48.767Z,93.76
2023-01-27T13:49:08.507Z,91.12
2023-01-27T13:50:22.180Z,91.43
2023-01-27T13:51:28.038Z,92.54
2023-01-27T13:52:29.585Z,92.27
2023-01-27T13:53:31.270Z,91.83
2023-01-27T13:54:33.072Z,90.29
2023-01-27T13:55:40.615Z,90.18
2023-01-27T13:57:00.476Z,89.87
2023-01-27T13:58:09.507Z,90.16
2023-01-27T13:59:32.131Z,91.64
2023-01-27T14:01:15.851Z,91.66
2023-01-27T14:02:48.829Z,92.25
2023-01-27T14:04:12.133Z,91.43
2023-01-27T14:05:25.889Z,91.76
2023-01-27T14:06:44.074Z,91.04
2023-01-27T14:08:04.335Z,93.69
2023-01-27T14:09:21.885Z,93.58
2023-01-27T14:10:38.076Z,94.27
2023-01-27T14:11:51.187Z,93.73
2023-01-27T14:13:18.903Z,94.23
2023-01-27T14:14:52.469Z,93.52